Time;durP1;ratioP1;P1;durP2;ratioP2;P2;SDS_P1;SDS_P2;PMS_P1;PMS_P2;Temp;Humidity;BMP_temperature;BMP_pressure;BME280_temperature;BME280_humidity;BME280_pressure;Samples;Min_cycle;Max_cycle;Signal;HPM_P1;HPM_P2
2022/06/12 00:01:43;;;;;;;0.40;0.40;;;18.30;99.90;;;;;;5114958;28;20206;-69
2022/06/12 00:04:31;;;;;;;0.40;0.40;;;18.30;99.90;;;;;;5113813;28;20223;-72
2022/06/12 00:07:19;;;;;;;0.40;0.40;;;18.30;99.90;;;;;;5113728;28;20199;-69
2022/06/12 00:10:10;;;;;;;0.60;0.60;;;18.30;99.90;;;;;;5114202;28;20219;-71
2022/06/12 00:12:59;;;;;;;0.40;0.40;;;18.40;99.90;;;;;;5114316;28;20581;-69
2022/06/12 00:15:48;;;;;;;0.40;0.40;;;18.40;99.90;;;;;;5113866;28;20494;-71
2022/06/12 00:18:37;;;;;;;0.40;0.40;;;18.40;99.90;;;;;;5113431;28;20199;-72
2022/06/12 00:21:26;;;;;;;0.40;0.40;;;18.40;99.90;;;;;;5114073;28;20206;-73
2022/06/12 00:24:17;;;;;;;0.40;0.40;;;18.40;99.90;;;;;;5113999;28;20216;-70
2022/06/12 00:27:07;;;;;;;0.40;0.40;;;18.40;99.90;;;;;;5113698;28;20204;-71
2022/06/12 00:29:56;;;;;;;0.40;0.40;;;18.40;99.90;;;;;;5113213;28;20247;-71
2022/06/12 00:32:49;;;;;;;0.40;0.40;;;18.40;99.90;;;;;;5118312;28;20203;-71
2022/06/12 00:35:38;;;;;;;0.40;0.40;;;18.30;99.90;;;;;;5118581;28;20200;-71
2022/06/12 00:38:26;;;;;;;0.40;0.40;;;18.30;99.90;;;;;;5113580;28;20259;-72
2022/06/12 00:41:14;;;;;;;0.40;0.40;;;18.10;99.90;;;;;;5113440;28;20199;-75
2022/06/12 00:44:05;;;;;;;1.58;1.58;;;18.00;99.90;;;;;;5112991;28;20203;-70
2022/06/12 00:46:57;;;;;;;0.40;0.40;;;17.90;99.90;;;;;;5112927;28;20195;-72
2022/06/12 00:49:49;;;;;;;0.40;0.40;;;17.80;99.90;;;;;;5112692;28;20215;-70
2022/06/12 00:52:44;;;;;;;0.40;0.40;;;17.70;99.90;;;;;;5113842;28;20205;-70
2022/06/12 00:55:39;;;;;;;0.50;0.50;;;17.60;99.90;;;;;;5113323;28;20191;-71
2022/06/12 00:58:31;;;;;;;0.50;0.50;;;17.50;99.90;;;;;;5132808;27;20199;-72
2022/06/12 01:01:25;;;;;;;0.50;0.50;;;17.50;99.90;;;;;;5133616;27;20267;-71
2022/06/12 01:07:24;;;;;;;0.40;0.40;;;17.30;99.90;;;;;;5133808;27;20195;-70
2022/06/12 01:10:14;;;;;;;0.50;0.50;;;17.30;99.90;;;;;;5126166;27;20225;-68
2022/06/12 01:13:06;;;;;;;0.40;0.40;;;17.20;99.90;;;;;;5144248;22;20263;-68
2022/06/12 01:15:57;;;;;;;0.40;0.40;;;17.20;99.90;;;;;;5076317;28;20204;-69
2022/06/12 01:18:50;;;;;;;0.40;0.40;;;17.20;99.90;;;;;;5076203;28;20760;-67
2022/06/12 01:22:20;;;;;;;0.40;0.40;;;17.20;99.90;;;;;;5076233;28;20189;-68
2022/06/12 01:26:03;;;;;;;0.40;0.40;;;17.20;99.90;;;;;;5017319;28;20298;-67
2022/06/12 01:28:55;;;;;;;0.40;0.40;;;17.10;99.90;;;;;;4999628;28;20199;-68
2022/06/12 01:31:52;;;;;;;0.40;0.40;;;17.20;99.90;;;;;;5060020;28;20697;-68
2022/06/12 01:34:49;;;;;;;0.40;0.40;;;17.20;99.90;;;;;;5061581;28;20217;-68
2022/06/12 01:37:47;;;;;;;0.40;0.40;;;17.20;99.90;;;;;;5054938;28;20205;-68
2022/06/12 01:40:43;;;;;;;0.40;0.40;;;17.20;99.90;;;;;;5054905;28;20573;-68
2022/06/12 01:43:37;;;;;;;0.40;0.40;;;17.10;99.90;;;;;;5055615;28;20229;-67
2022/06/12 01:46:40;;;;;;;0.40;0.40;;;17.10;99.90;;;;;;5054337;28;20206;-67
2022/06/12 01:49:36;;;;;;;0.40;0.40;;;17.10;99.90;;;;;;5053997;28;20208;-67
2022/06/12 01:52:30;;;;;;;0.40;0.40;;;17.10;99.90;;;;;;5055030;28;20681;-68
2022/06/12 01:55:26;;;;;;;1.50;1.45;;;17.10;99.90;;;;;;5054452;28;20220;-68
2022/06/12 01:58:19;;;;;;;0.40;0.40;;;17.20;99.90;;;;;;5055366;28;20201;-67
2022/06/12 02:01:12;;;;;;;0.45;0.45;;;17.10;99.90;;;;;;5053926;28;20201;-68
2022/06/12 02:04:06;;;;;;;0.40;0.40;;;17.20;99.90;;;;;;5053659;28;20221;-69
2022/06/12 02:07:00;;;;;;;0.40;0.40;;;17.20;99.90;;;;;;5054473;28;20677;-67
2022/06/12 02:09:53;;;;;;;0.40;0.40;;;17.20;99.90;;;;;;5054258;28;20231;-68
2022/06/12 02:16:00;;;;;;;0.40;0.40;;;17.10;99.90;;;;;;5054928;28;20677;-68
2022/06/12 02:18:51;;;;;;;0.40;0.40;;;17.00;99.90;;;;;;5053942;28;20197;-67
2022/06/12 02:21:45;;;;;;;0.40;0.40;;;17.10;99.90;;;;;;5054538;28;20693;-68
2022/06/12 02:24:40;;;;;;;0.40;0.40;;;17.00;99.90;;;;;;5054181;28;20218;-68
2022/06/12 02:27:33;;;;;;;0.40;0.40;;;17.00;99.90;;;;;;5054960;28;20577;-68
2022/06/12 02:30:25;;;;;;;0.40;0.40;;;17.00;99.90;;;;;;5054124;28;20464;-68
2022/06/12 02:33:18;;;;;;;0.40;0.40;;;16.90;99.90;;;;;;5054415;28;20267;-68
2022/06/12 02:36:13;;;;;;;0.40;0.40;;;16.90;99.90;;;;;;5054191;28;20279;-67
2022/06/12 02:39:08;;;;;;;0.40;0.40;;;16.90;99.90;;;;;;5054702;28;20204;-68
2022/06/12 02:42:02;;;;;;;0.40;0.40;;;16.80;99.90;;;;;;5053384;28;20212;-68
2022/06/12 02:44:54;;;;;;;0.40;0.40;;;16.80;99.90;;;;;;5053256;28;20606;-68
2022/06/12 02:47:44;;;;;;;0.40;0.40;;;16.70;99.90;;;;;;5055312;28;20204;-68
2022/06/12 02:50:39;;;;;;;0.40;0.40;;;16.80;99.90;;;;;;5053838;28;20201;-68
2022/06/12 02:53:48;;;;;;;0.40;0.40;;;16.80;99.90;;;;;;5052410;28;20296;-67
2022/06/12 02:56:44;;;;;;;0.40;0.40;;;16.70;99.90;;;;;;5048065;28;20186;-68
2022/06/12 02:59:44;;;;;;;0.40;0.40;;;16.60;99.90;;;;;;5033115;28;20201;-68
2022/06/12 03:02:37;;;;;;;0.40;0.40;;;16.60;99.90;;;;;;5033226;28;20332;-68
2022/06/12 03:05:28;;;;;;;0.40;0.40;;;16.70;99.90;;;;;;5033927;28;20222;-68
2022/06/12 03:08:20;;;;;;;0.40;0.40;;;16.90;99.90;;;;;;5033880;28;20206;-68
2022/06/12 03:11:11;;;;;;;0.40;0.40;;;17.00;99.90;;;;;;5049347;28;20205;-68
2022/06/12 03:14:02;;;;;;;0.40;0.40;;;17.10;99.90;;;;;;5052646;28;20248;-67
2022/06/12 03:16:51;;;;;;;0.40;0.40;;;17.30;99.90;;;;;;5052358;28;20194;-67
2022/06/12 03:19:46;;;;;;;0.40;0.40;;;17.40;99.90;;;;;;5051673;28;20692;-68
2022/06/12 03:22:41;;;;;;;0.40;0.40;;;17.40;99.90;;;;;;5052758;28;20205;-68
2022/06/12 03:25:37;;;;;;;0.40;0.40;;;17.50;99.90;;;;;;5052066;28;20221;-67
2022/06/12 03:28:37;;;;;;;0.40;0.40;;;17.60;99.90;;;;;;5052187;28;20200;-68
2022/06/12 03:31:32;;;;;;;0.40;0.40;;;17.60;99.90;;;;;;5053025;28;20208;-67
2022/06/12 03:34:30;;;;;;;0.40;0.40;;;17.70;99.90;;;;;;5052282;28;20217;-67
2022/06/12 03:37:25;;;;;;;0.40;0.40;;;17.70;99.90;;;;;;5051944;28;20208;-67
2022/06/12 03:40:21;;;;;;;0.40;0.40;;;17.70;99.90;;;;;;5052277;28;20198;-67
2022/06/12 03:43:14;;;;;;;0.40;0.40;;;17.60;99.90;;;;;;5052803;28;20621;-67
2022/06/12 03:46:11;;;;;;;0.40;0.40;;;17.50;99.90;;;;;;5052724;28;20217;-68
2022/06/12 03:49:10;;;;;;;0.40;0.40;;;17.50;99.90;;;;;;5052485;28;20204;-67
2022/06/12 03:52:03;;;;;;;0.40;0.40;;;17.40;99.90;;;;;;5052710;28;20690;-67
2022/06/12 03:54:58;;;;;;;0.40;0.40;;;17.50;99.90;;;;;;5053360;28;20302;-68
2022/06/12 03:57:53;;;;;;;0.40;0.40;;;17.60;99.90;;;;;;5053106;28;20205;-68
2022/06/12 04:00:44;;;;;;;0.40;0.40;;;17.80;99.90;;;;;;5052662;28;20276;-68
2022/06/12 04:03:38;;;;;;;0.40;0.40;;;17.90;99.90;;;;;;5055173;28;20221;-68
2022/06/12 04:06:31;;;;;;;0.98;0.98;;;18.00;99.90;;;;;;5058261;28;20236;-68
2022/06/12 04:09:23;;;;;;;0.50;0.50;;;17.90;99.90;;;;;;5061670;28;20202;-68
2022/06/12 04:12:18;;;;;;;0.65;0.60;;;17.70;99.90;;;;;;5061713;28;20284;-68
2022/06/12 04:15:14;;;;;;;1.85;1.45;;;17.60;99.90;;;;;;5064339;28;20202;-68
2022/06/12 04:18:03;;;;;;;0.40;0.40;;;17.50;99.90;;;;;;5057425;28;20213;-68
2022/06/12 04:20:55;;;;;;;0.40;0.40;;;17.50;99.90;;;;;;5053834;28;20691;-68
2022/06/12 04:23:55;;;;;;;0.40;0.40;;;17.50;99.90;;;;;;5053684;28;20268;-67
2022/06/12 04:26:50;;;;;;;0.40;0.40;;;17.70;99.90;;;;;;5056173;28;20275;-67
2022/06/12 04:29:48;;;;;;;0.40;0.40;;;17.80;99.90;;;;;;5056095;28;20677;-67
2022/06/12 04:32:36;;;;;;;0.50;0.50;;;17.90;99.90;;;;;;5056623;28;20320;-68
2022/06/12 04:35:24;;;;;;;0.40;0.40;;;17.90;99.90;;;;;;5055464;28;20247;-68
2022/06/12 04:38:12;;;;;;;0.40;0.40;;;18.10;99.90;;;;;;5056188;28;20568;-68
2022/06/12 04:41:03;;;;;;;1.10;0.90;;;18.00;99.90;;;;;;5056025;28;20264;-68
2022/06/12 04:43:51;;;;;;;0.40;0.40;;;17.90;99.90;;;;;;5056615;28;20222;-67
2022/06/12 04:46:43;;;;;;;0.40;0.40;;;17.80;99.90;;;;;;5056470;28;20318;-68
2022/06/12 04:49:35;;;;;;;0.40;0.40;;;17.70;99.90;;;;;;5055386;28;20233;-68
2022/06/12 04:52:27;;;;;;;0.40;0.40;;;17.80;99.90;;;;;;5055806;28;20197;-67
2022/06/12 04:55:15;;;;;;;0.40;0.40;;;17.80;99.90;;;;;;5055941;28;20643;-67
2022/06/12 04:58:05;;;;;;;0.40;0.40;;;18.00;99.90;;;;;;5055346;28;20201;-68
2022/06/12 05:00:53;;;;;;;1.05;1.05;;;18.10;99.90;;;;;;5057036;28;20201;-68
2022/06/12 05:03:42;;;;;;;0.40;0.40;;;18.20;99.90;;;;;;5055068;28;20225;-68
2022/06/12 05:06:30;;;;;;;0.40;0.40;;;18.30;99.90;;;;;;5054899;28;20630;-68
2022/06/12 05:09:21;;;;;;;0.40;0.40;;;18.20;99.90;;;;;;5054453;28;20205;-67
2022/06/12 05:12:12;;;;;;;0.40;0.40;;;18.30;99.90;;;;;;5054621;28;20284;-68
2022/06/12 05:15:01;;;;;;;0.82;0.82;;;18.50;99.90;;;;;;5054692;28;20237;-68
2022/06/12 05:17:50;;;;;;;0.40;0.40;;;18.70;99.90;;;;;;5055295;28;20739;-68
2022/06/12 05:20:39;;;;;;;0.50;0.50;;;19.00;99.90;;;;;;5054755;28;20252;-69
2022/06/12 05:23:27;;;;;;;1.20;1.20;;;19.10;99.90;;;;;;5054619;28;20659;-68
2022/06/12 05:26:17;;;;;;;0.40;0.40;;;19.30;99.90;;;;;;5054502;28;20217;-68
2022/06/12 05:29:09;;;;;;;0.40;0.40;;;19.50;99.90;;;;;;5054695;28;20201;-68
2022/06/12 05:31:59;;;;;;;0.40;0.40;;;19.70;99.90;;;;;;5054355;28;20302;-68
2022/06/12 05:34:47;;;;;;;0.40;0.40;;;19.90;99.90;;;;;;5056414;28;20283;-67
2022/06/12 05:37:36;;;;;;;0.90;0.90;;;20.00;99.90;;;;;;5055005;28;20596;-67
2022/06/12 05:40:28;;;;;;;0.40;0.40;;;20.30;99.90;;;;;;5053906;28;20224;-68
2022/06/12 05:43:16;;;;;;;0.40;0.40;;;20.40;99.90;;;;;;5054414;28;20214;-69
2022/06/12 05:46:04;;;;;;;0.40;0.40;;;20.50;99.90;;;;;;5054608;28;20323;-67
2022/06/12 05:48:54;;;;;;;0.63;0.63;;;20.60;99.90;;;;;;5054368;28;20198;-68
2022/06/12 05:51:43;;;;;;;0.40;0.40;;;20.90;99.90;;;;;;5054662;28;20675;-68
2022/06/12 05:54:31;;;;;;;8.60;8.13;;;21.20;99.90;;;;;;5054005;28;20654;-69
2022/06/12 05:57:19;;;;;;;0.40;0.40;;;21.30;99.90;;;;;;5054357;28;20272;-68
2022/06/12 06:00:11;;;;;;;0.40;0.40;;;21.40;99.90;;;;;;5053432;28;20248;-68
2022/06/12 06:02:59;;;;;;;0.40;0.40;;;21.40;99.90;;;;;;5054872;28;20239;-68
2022/06/12 06:05:50;;;;;;;0.40;0.40;;;21.40;99.90;;;;;;5055071;28;20232;-68
2022/06/12 06:08:38;;;;;;;0.40;0.40;;;21.40;99.90;;;;;;5055179;28;20201;-68
2022/06/12 06:11:27;;;;;;;0.85;0.85;;;21.60;99.90;;;;;;5055651;28;20200;-68
2022/06/12 06:14:16;;;;;;;0.40;0.40;;;21.60;99.90;;;;;;5054805;28;20240;-68
2022/06/12 06:17:04;;;;;;;0.40;0.40;;;21.60;99.90;;;;;;5055012;28;20201;-68
2022/06/12 06:19:53;;;;;;;1.08;1.08;;;21.50;99.90;;;;;;5054648;28;20205;-68
2022/06/12 06:22:42;;;;;;;0.50;0.50;;;21.50;99.90;;;;;;5053065;28;20194;-68
2022/06/12 06:25:32;;;;;;;0.50;0.50;;;21.50;99.90;;;;;;5053599;28;20209;-68
2022/06/12 06:28:20;;;;;;;0.40;0.40;;;21.50;99.90;;;;;;5052875;28;20205;-68
2022/06/12 06:31:10;;;;;;;0.40;0.40;;;21.80;99.90;;;;;;5054986;28;20579;-68
2022/06/12 06:33:58;;;;;;;0.50;0.50;;;21.90;99.90;;;;;;5054331;28;20344;-68
2022/06/12 06:36:46;;;;;;;0.68;0.68;;;22.00;99.90;;;;;;5054672;28;20243;-68
2022/06/12 06:39:37;;;;;;;0.40;0.40;;;21.90;99.90;;;;;;5054240;28;20292;-69
2022/06/12 06:42:25;;;;;;;0.70;0.70;;;21.70;99.90;;;;;;5055121;28;20575;-68
2022/06/12 06:48:21;;;;;;;0.40;0.40;;;21.40;99.90;;;;;;5053439;28;20204;-68
2022/06/12 06:51:09;;;;;;;2.08;1.98;;;21.20;99.90;;;;;;5053365;28;20224;-68
2022/06/12 06:53:58;;;;;;;0.88;0.88;;;21.20;99.90;;;;;;5055026;28;20584;-68
2022/06/12 06:56:49;;;;;;;0.40;0.40;;;21.30;99.90;;;;;;5047761;28;20186;-68
2022/06/12 06:59:37;;;;;;;0.52;0.52;;;21.20;99.90;;;;;;5033589;28;20202;-68
2022/06/12 07:02:26;;;;;;;0.73;0.73;;;21.00;99.90;;;;;;5032929;28;20252;-68
2022/06/12 07:05:14;;;;;;;0.55;0.55;;;21.00;99.90;;;;;;5033276;28;20205;-68
2022/06/12 07:08:03;;;;;;;0.50;0.50;;;21.00;99.90;;;;;;5033668;28;20222;-68
2022/06/12 07:10:52;;;;;;;0.40;0.40;;;21.00;99.90;;;;;;5032392;28;20579;-68
2022/06/12 07:13:42;;;;;;;0.40;0.40;;;21.10;99.90;;;;;;5068567;22;20231;-71
2022/06/12 07:16:32;;;;;;;0.40;0.40;;;21.60;99.90;;;;;;5070774;28;20238;-69
2022/06/12 07:19:20;;;;;;;0.50;0.50;;;22.00;99.90;;;;;;5071629;28;20203;-69
2022/06/12 07:22:08;;;;;;;0.40;0.40;;;22.30;99.90;;;;;;5072769;28;20193;-68
2022/06/12 07:24:56;;;;;;;0.40;0.40;;;22.40;99.90;;;;;;5071812;28;20708;-69
2022/06/12 07:27:45;;;;;;;0.40;0.40;;;22.30;99.90;;;;;;5072657;28;20212;-68
2022/06/12 07:30:36;;;;;;;0.40;0.40;;;22.40;99.90;;;;;;5072623;28;20201;-69
2022/06/12 07:33:24;;;;;;;0.40;0.40;;;22.50;99.90;;;;;;5088122;28;20284;-68
2022/06/12 07:36:14;;;;;;;0.40;0.40;;;22.50;99.90;;;;;;5072860;28;20200;-68
2022/06/12 07:39:05;;;;;;;0.40;0.40;;;22.40;99.90;;;;;;5072432;28;20196;-69
2022/06/12 07:42:04;;;;;;;0.40;0.40;;;22.40;99.90;;;;;;5072079;28;20583;-68
2022/06/12 07:44:53;;;;;;;0.98;0.98;;;22.50;99.90;;;;;;5071845;28;20228;-70
2022/06/12 07:47:43;;;;;;;1.20;1.20;;;22.60;99.90;;;;;;5072406;28;20227;-68
2022/06/12 07:50:31;;;;;;;0.50;0.50;;;22.80;99.90;;;;;;5072408;28;20203;-69
2022/06/12 07:53:21;;;;;;;0.40;0.40;;;23.00;99.90;;;;;;5072873;28;20224;-69
2022/06/12 07:56:11;;;;;;;0.40;0.40;;;23.20;99.90;;;;;;5073085;28;20204;-68
2022/06/12 07:58:59;;;;;;;0.40;0.40;;;23.40;99.90;;;;;;5072809;28;20200;-69
2022/06/12 08:01:48;;;;;;;0.50;0.50;;;23.50;99.90;;;;;;5076605;28;20570;-71
2022/06/12 08:04:37;;;;;;;0.40;0.40;;;23.80;99.90;;;;;;5075765;28;20216;-68
2022/06/12 08:07:26;;;;;;;0.40;0.40;;;24.20;99.90;;;;;;5076299;28;20650;-71
2022/06/12 08:10:15;;;;;;;0.40;0.40;;;24.60;99.90;;;;;;5075556;28;20201;-69
2022/06/12 08:13:04;;;;;;;0.40;0.40;;;25.00;99.90;;;;;;5076120;28;20200;-69
2022/06/12 08:15:53;;;;;;;0.40;0.40;;;25.40;99.90;;;;;;5075497;28;20201;-70
2022/06/12 08:18:42;;;;;;;0.40;0.40;;;25.70;99.90;;;;;;5075512;28;20201;-69
2022/06/12 08:21:32;;;;;;;0.65;0.65;;;25.80;99.90;;;;;;5075470;28;20212;-69
2022/06/12 08:24:20;;;;;;;0.40;0.40;;;25.60;99.90;;;;;;5075555;28;20221;-69
2022/06/12 08:27:09;;;;;;;0.55;0.55;;;25.50;99.90;;;;;;5075887;28;20228;-68
2022/06/12 08:29:57;;;;;;;0.55;0.55;;;25.40;99.90;;;;;;5074846;28;20676;-69
2022/06/12 08:32:47;;;;;;;0.40;0.40;;;25.60;99.90;;;;;;5074702;28;20258;-69
2022/06/12 08:35:36;;;;;;;0.40;0.40;;;25.60;99.90;;;;;;5075393;28;20201;-72
2022/06/12 08:38:25;;;;;;;0.40;0.40;;;25.50;99.90;;;;;;5075773;28;20200;-70
2022/06/12 08:41:16;;;;;;;0.40;0.40;;;25.50;99.90;;;;;;5074034;28;20783;-70
2022/06/12 08:44:12;;;;;;;0.40;0.40;;;25.70;99.90;;;;;;5075412;28;20220;-70
2022/06/12 08:47:07;;;;;;;0.40;0.40;;;25.60;99.90;;;;;;5075089;28;20268;-70
2022/06/12 08:50:05;;;;;;;1.38;1.38;;;25.60;99.90;;;;;;5073631;28;20294;-69
2022/06/12 08:53:00;;;;;;;0.70;0.70;;;25.60;99.90;;;;;;5073919;28;20200;-68
2022/06/12 08:55:54;;;;;;;0.40;0.40;;;25.40;99.90;;;;;;5073971;28;20595;-69
2022/06/12 08:58:48;;;;;;;0.40;0.40;;;25.30;99.90;;;;;;5054503;28;20395;-70
2022/06/12 09:01:41;;;;;;;0.65;0.65;;;25.30;99.90;;;;;;5053289;28;20208;-69
2022/06/12 09:04:29;;;;;;;0.50;0.50;;;25.20;99.90;;;;;;5054011;28;20233;-69
2022/06/12 09:07:24;;;;;;;2.80;1.08;;;25.00;99.90;;;;;;5052819;28;20206;-69
2022/06/12 09:10:22;;;;;;;0.40;0.40;;;24.50;99.90;;;;;;5053518;28;20276;-69
2022/06/12 09:13:21;;;;;;;0.93;0.65;;;24.30;99.90;;;;;;5053957;28;20217;-69
2022/06/12 09:16:17;;;;;;;0.88;0.60;;;24.00;99.90;;;;;;5053594;28;20239;-68
2022/06/12 09:19:11;;;;;;;0.93;0.93;;;24.10;99.90;;;;;;5053236;28;20198;-69
2022/06/12 09:22:09;;;;;;;0.90;0.90;;;24.10;99.90;;;;;;5054279;28;20233;-69
2022/06/12 09:25:02;;;;;;;0.95;0.82;;;24.20;99.90;;;;;;5052804;28;20221;-69
2022/06/12 09:28:01;;;;;;;0.52;0.52;;;24.40;99.90;;;;;;5053913;28;20228;-68
2022/06/12 09:30:58;;;;;;;0.40;0.40;;;24.40;99.90;;;;;;5060758;28;20699;-70
2022/06/12 09:33:58;;;;;;;1.70;1.30;;;24.20;99.90;;;;;;5054027;28;20705;-69
2022/06/12 09:36:58;;;;;;;0.40;0.40;;;24.50;99.90;;;;;;5054020;28;20625;-70
2022/06/12 09:39:56;;;;;;;0.93;0.93;;;24.80;99.90;;;;;;5053134;28;20198;-70
2022/06/12 09:42:57;;;;;;;0.63;0.63;;;25.10;99.90;;;;;;5053576;28;20693;-69
2022/06/12 09:45:53;;;;;;;1.67;1.58;;;25.30;99.90;;;;;;5053432;28;20250;-68
2022/06/12 09:48:55;;;;;;;1.60;1.50;;;25.20;99.90;;;;;;5053260;28;20312;-70
2022/06/12 09:52:03;;;;;;;0.40;0.40;;;25.20;99.90;;;;;;5052987;28;20216;-70
2022/06/12 09:54:56;;;;;;;0.40;0.40;;;25.20;99.90;;;;;;5052405;28;20221;-70
2022/06/12 09:57:50;;;;;;;0.40;0.40;;;25.60;99.90;;;;;;5066965;28;20677;-69
2022/06/12 10:00:42;;;;;;;0.40;0.40;;;25.50;99.90;;;;;;5073147;28;20583;-69
2022/06/12 10:03:39;;;;;;;0.50;0.50;;;24.90;99.90;;;;;;5073036;28;20220;-69
2022/06/12 10:06:35;;;;;;;0.40;0.40;;;24.40;99.90;;;;;;5074160;28;20280;-69
2022/06/12 10:09:30;;;;;;;0.50;0.50;;;24.40;99.90;;;;;;5071724;28;20220;-70
2022/06/12 10:12:24;;;;;;;0.40;0.40;;;24.30;99.90;;;;;;5072189;28;20699;-70
2022/06/12 10:15:17;;;;;;;0.40;0.40;;;24.40;99.90;;;;;;5072601;28;20228;-69
2022/06/12 10:18:10;;;;;;;0.45;0.45;;;24.60;99.90;;;;;;5073054;28;20569;-69
2022/06/12 10:21:08;;;;;;;1.00;0.47;;;24.70;99.90;;;;;;5073356;28;20203;-69
2022/06/12 10:24:01;;;;;;;0.60;0.60;;;24.80;99.90;;;;;;5073379;28;20627;-70
2022/06/12 10:26:58;;;;;;;0.57;0.57;;;24.60;99.90;;;;;;5072579;28;20205;-70
2022/06/12 10:29:50;;;;;;;0.40;0.40;;;24.50;99.90;;;;;;5071862;28;20219;-70
2022/06/12 10:32:52;;;;;;;0.40;0.40;;;24.60;99.90;;;;;;5072999;28;20283;-70
2022/06/12 10:35:48;;;;;;;0.52;0.52;;;24.90;99.90;;;;;;5072437;28;20200;-71
2022/06/12 10:38:37;;;;;;;0.60;0.60;;;25.00;99.90;;;;;;5072430;28;20220;-68
2022/06/12 10:41:29;;;;;;;1.90;1.80;;;24.80;99.40;;;;;;5071420;28;20201;-69
2022/06/12 10:44:36;;;;;;;0.50;0.50;;;24.50;99.40;;;;;;5071825;28;20224;-69
2022/06/12 10:47:26;;;;;;;0.50;0.50;;;24.50;99.10;;;;;;5072384;28;20211;-70
2022/06/12 10:50:20;;;;;;;0.40;0.40;;;24.60;99.40;;;;;;5072900;28;20284;-69
2022/06/12 10:53:17;;;;;;;1.10;1.00;;;24.80;97.50;;;;;;5072589;28;20217;-69
2022/06/12 10:56:20;;;;;;;1.05;1.02;;;24.90;97.20;;;;;;5072406;28;20205;-70
2022/06/12 10:59:34;;;;;;;0.40;0.40;;;24.90;97.10;;;;;;5053869;28;20192;-71
2022/06/12 11:02:47;;;;;;;2.10;2.05;;;25.10;97.20;;;;;;5051555;28;20550;-69
2022/06/12 11:05:52;;;;;;;0.50;0.50;;;25.50;96.90;;;;;;5052136;28;20201;-70
2022/06/12 11:09:01;;;;;;;0.60;0.60;;;25.70;96.30;;;;;;5051439;28;20213;-70
2022/06/12 11:12:20;;;;;;;0.75;0.75;;;25.80;95.20;;;;;;5052231;28;20581;-70
2022/06/12 11:15:27;;;;;;;0.70;0.70;;;25.70;95.00;;;;;;5052455;28;20229;-70
2022/06/12 11:18:24;;;;;;;0.60;0.60;;;25.60;95.30;;;;;;5052371;28;20193;-71
2022/06/12 11:21:26;;;;;;;1.95;0.73;;;25.60;95.00;;;;;;5051277;28;20561;-71
2022/06/12 11:24:18;;;;;;;0.45;0.45;;;25.70;95.60;;;;;;5051373;28;20223;-71
2022/06/12 11:27:28;;;;;;;0.40;0.40;;;25.80;95.50;;;;;;5058989;28;20208;-70
2022/06/12 11:30:35;;;;;;;0.40;0.40;;;25.70;95.20;;;;;;5054679;28;20290;-70
2022/06/12 11:33:50;;;;;;;1.05;0.90;;;25.40;95.20;;;;;;5052674;28;20217;-69
2022/06/12 11:36:49;;;;;;;0.85;0.85;;;25.00;95.80;;;;;;5054914;28;20209;-69
2022/06/12 11:39:47;;;;;;;1.17;1.17;;;24.70;96.40;;;;;;5055080;28;20231;-70
2022/06/12 11:42:53;;;;;;;0.50;0.50;;;24.70;96.60;;;;;;5054527;28;20205;-69
2022/06/12 11:46:24;;;;;;;0.50;0.50;;;24.80;96.10;;;;;;5055222;28;20284;-69
2022/06/12 11:49:27;;;;;;;0.77;0.77;;;24.90;95.40;;;;;;5055283;28;20258;-71
2022/06/12 11:52:40;;;;;;;0.40;0.40;;;25.00;95.40;;;;;;5055564;28;20205;-68
2022/06/12 11:55:37;;;;;;;0.60;0.50;;;25.30;95.20;;;;;;5055594;28;20589;-70
2022/06/12 11:58:48;;;;;;;0.55;0.55;;;25.70;94.00;;;;;;5055612;28;20581;-71
2022/06/12 12:01:44;;;;;;;1.23;1.23;;;26.10;92.50;;;;;;5054560;28;20567;-69
2022/06/12 12:04:50;;;;;;;0.50;0.50;;;26.10;92.60;;;;;;5055360;28;20228;-71
2022/06/12 12:07:53;;;;;;;0.50;0.50;;;26.10;93.10;;;;;;5054403;28;20205;-70
2022/06/12 12:10:48;;;;;;;1.48;1.38;;;26.30;92.00;;;;;;5055072;28;20216;-69
2022/06/12 12:13:43;;;;;;;0.73;0.60;;;26.30;91.50;;;;;;5055022;28;20229;-69
2022/06/12 12:16:39;;;;;;;0.73;0.73;;;25.90;91.10;;;;;;5054040;28;20206;-68
2022/06/12 12:19:32;;;;;;;0.73;0.73;;;25.80;91.80;;;;;;5054973;28;20197;-70
2022/06/12 12:22:31;;;;;;;1.05;1.05;;;26.00;91.70;;;;;;5054762;28;20197;-69
2022/06/12 12:25:25;;;;;;;0.40;0.40;;;26.30;91.70;;;;;;5054141;28;20225;-71
2022/06/12 12:28:20;;;;;;;0.60;0.60;;;26.30;91.50;;;;;;5054895;28;20213;-70
2022/06/12 12:31:12;;;;;;;0.40;0.40;;;26.10;91.00;;;;;;5054728;28;20197;-70
2022/06/12 12:34:03;;;;;;;0.40;0.40;;;26.00;91.40;;;;;;5054860;28;20604;-71
2022/06/12 12:43:14;;;;;;;0.50;0.50;;;29.70;82.40;;;;;;5052835;28;20205;-68
2022/06/12 12:46:06;;;;;;;0.40;0.40;;;29.90;82.60;;;;;;5053005;28;20292;-69
2022/06/12 12:48:55;;;;;;;3.13;1.02;;;32.40;78.10;;;;;;5052865;28;20574;-69
2022/06/12 12:51:44;;;;;;;0.50;0.50;;;35.10;70.00;;;;;;5053424;28;20210;-69
2022/06/12 12:54:45;;;;;;;0.68;0.68;;;36.40;62.40;;;;;;5054047;28;20217;-69
2022/06/12 12:57:36;;;;;;;0.50;0.50;;;35.60;58.70;;;;;;5064873;28;20246;-69
2022/06/12 13:00:33;;;;;;;0.80;0.80;;;34.40;60.10;;;;;;5073235;28;20197;-68
2022/06/12 13:03:29;;;;;;;0.50;0.50;;;34.40;59.30;;;;;;5073991;28;20307;-69
2022/06/12 13:06:41;;;;;;;0.40;0.40;;;35.80;57.90;;;;;;5073523;28;20205;-69
2022/06/12 13:09:42;;;;;;;0.93;0.93;;;37.20;55.10;;;;;;5073036;28;20220;-69
2022/06/12 13:13:00;;;;;;;0.40;0.40;;;38.20;52.10;;;;;;5073171;28;20235;-69
2022/06/12 13:15:57;;;;;;;1.55;0.82;;;38.20;50.90;;;;;;5077264;23;20534;-69
2022/06/12 13:19:16;;;;;;;0.40;0.40;;;39.00;50.00;;;;;;5053274;28;20212;-69
2022/06/12 13:22:18;;;;;;;0.50;0.50;;;40.00;47.50;;;;;;5053029;28;20229;-69
2022/06/12 13:25:10;;;;;;;0.63;0.60;;;40.00;46.20;;;;;;5053030;28;20221;-69
2022/06/12 13:28:01;;;;;;;0.50;0.50;;;40.20;45.10;;;;;;5052932;28;20691;-68
2022/06/12 13:30:50;;;;;;;11.75;3.10;;;40.30;44.60;;;;;;5051202;28;20220;-70
2022/06/12 13:33:40;;;;;;;0.50;0.50;;;41.10;43.90;;;;;;5052814;28;20193;-68
2022/06/12 13:36:34;;;;;;;1.45;1.45;;;42.20;42.60;;;;;;5052881;28;20229;-68
2022/06/12 13:39:31;;;;;;;0.50;0.50;;;43.20;41.80;;;;;;5052520;28;20732;-68
2022/06/12 13:42:23;;;;;;;0.70;0.70;;;43.20;40.70;;;;;;5052484;28;20580;-68
2022/06/12 13:45:23;;;;;;;0.80;0.80;;;42.60;40.20;;;;;;5051649;28;20239;-68
2022/06/12 13:48:21;;;;;;;0.60;0.60;;;42.50;39.60;;;;;;5053111;28;20201;-68
2022/06/12 13:51:18;;;;;;;0.77;0.77;;;41.70;40.40;;;;;;5051200;28;20256;-69
2022/06/12 13:54:15;;;;;;;0.50;0.50;;;41.20;40.10;;;;;;5050908;28;20328;-68
2022/06/12 13:57:10;;;;;;;0.50;0.50;;;42.00;40.10;;;;;;5052159;28;20205;-68
2022/06/12 13:59:59;;;;;;;0.60;0.60;;;41.90;39.70;;;;;;5052476;28;20197;-68
2022/06/12 14:02:48;;;;;;;0.52;0.52;;;40.90;40.30;;;;;;5050778;28;20197;-69
2022/06/12 14:05:47;;;;;;;0.50;0.50;;;40.30;40.90;;;;;;5052029;28;20643;-68
2022/06/12 14:08:38;;;;;;;0.60;0.60;;;39.40;40.90;;;;;;5052924;28;20213;-71
2022/06/12 14:11:28;;;;;;;1.73;0.95;;;37.60;42.80;;;;;;5052419;28;20308;-70
2022/06/12 14:14:34;;;;;;;0.40;0.40;;;37.50;43.00;;;;;;5052894;28;20233;-69
2022/06/12 14:17:25;;;;;;;0.50;0.50;;;38.30;42.10;;;;;;5053183;28;20225;-68
2022/06/12 14:20:25;;;;;;;0.40;0.40;;;39.80;41.20;;;;;;5052260;28;20205;-68
2022/06/12 14:23:19;;;;;;;0.50;0.50;;;40.00;40.30;;;;;;5050995;28;20389;-68
2022/06/12 14:26:23;;;;;;;0.50;0.50;;;40.40;39.10;;;;;;5052401;28;20205;-67
2022/06/12 14:29:40;;;;;;;0.77;0.77;;;41.20;39.40;;;;;;5051933;28;20224;-69
2022/06/12 14:32:30;;;;;;;0.40;0.40;;;39.40;40.00;;;;;;5052424;28;20543;-70
2022/06/12 14:35:22;;;;;;;0.40;0.40;;;39.90;39.90;;;;;;5052095;28;20241;-68
2022/06/12 14:38:18;;;;;;;0.50;0.50;;;41.10;39.60;;;;;;5051331;28;20645;-68
2022/06/12 14:41:19;;;;;;;0.40;0.40;;;42.60;37.90;;;;;;5051608;28;20755;-67
2022/06/12 14:44:09;;;;;;;0.75;0.73;;;43.50;36.30;;;;;;5051089;28;20233;-70
2022/06/12 14:47:09;;;;;;;0.50;0.50;;;44.00;36.10;;;;;;5052656;28;20236;-69
2022/06/12 14:49:59;;;;;;;0.50;0.50;;;43.00;35.50;;;;;;5051747;28;20244;-66
2022/06/12 14:52:48;;;;;;;0.50;0.50;;;41.10;36.70;;;;;;5052032;28;20386;-67
2022/06/12 14:55:37;;;;;;;0.40;0.40;;;39.80;38.20;;;;;;5051123;28;20233;-67
2022/06/12 14:58:29;;;;;;;0.82;0.82;;;39.90;37.20;;;;;;5050469;28;20197;-69
2022/06/12 15:01:21;;;;;;;0.63;0.63;;;40.20;35.50;;;;;;5051240;28;20194;-70
2022/06/12 15:04:11;;;;;;;0.50;0.50;;;39.50;35.60;;;;;;5051289;28;20224;-67
2022/06/12 15:06:59;;;;;;;0.40;0.40;;;40.20;35.40;;;;;;5050548;28;20288;-67
2022/06/12 15:09:48;;;;;;;0.40;0.40;;;40.60;34.90;;;;;;5050919;28;20262;-69
2022/06/12 15:12:37;;;;;;;0.40;0.40;;;40.50;34.80;;;;;;5050653;28;20197;-68
2022/06/12 15:15:26;;;;;;;0.60;0.60;;;40.80;34.60;;;;;;5049901;28;20735;-67
2022/06/12 15:18:16;;;;;;;0.50;0.50;;;40.90;34.60;;;;;;5050667;28;20213;-67
2022/06/12 15:21:04;;;;;;;0.50;0.50;;;40.90;33.80;;;;;;5050813;28;20215;-67
2022/06/12 15:23:52;;;;;;;2.72;2.53;;;41.20;33.90;;;;;;5051317;28;20535;-67